createdAt,value
2022-12-31T00:02:43.195Z,14.85
2022-12-31T00:06:17.380Z,13.80
2022-12-31T00:09:41.064Z,16.33
2022-12-31T00:13:07.167Z,13.88
2022-12-31T00:16:34.329Z,16.17
2022-12-31T00:19:58.630Z,13.10
2022-12-31T00:23:23.845Z,13.18
2022-12-31T00:26:47.950Z,13.93
2022-12-31T00:30:12.774Z,15.52
2022-12-31T00:33:36.911Z,11.57
2022-12-31T00:37:01.140Z,13.60
2022-12-31T00:40:26.634Z,15.30
2022-12-31T00:43:51.020Z,13.98
2022-12-31T00:47:15.411Z,13.20
2022-12-31T00:50:39.619Z,14.73
2022-12-31T00:54:03.870Z,16.77
2022-12-31T00:57:29.340Z,14.68
2022-12-31T01:00:53.738Z,16.00
2022-12-31T01:04:23.180Z,15.23
2022-12-31T01:07:47.331Z,15.20
2022-12-31T01:11:23.508Z,13.48
2022-12-31T01:14:49.192Z,13.20
2022-12-31T01:18:13.129Z,13.95
2022-12-31T01:21:39.838Z,9.10
2022-12-31T01:25:03.648Z,12.23
2022-12-31T01:28:27.589Z,14.55
2022-12-31T01:31:53.034Z,10.65
2022-12-31T01:35:17.339Z,10.38
2022-12-31T01:38:41.767Z,12.68
2022-12-31T01:42:06.326Z,10.30
2022-12-31T01:45:30.779Z,11.00
2022-12-31T01:49:02.131Z,9.75
2022-12-31T01:52:31.797Z,12.20
2022-12-31T01:55:59.718Z,11.70
2022-12-31T01:59:27.023Z,13.07
2022-12-31T02:02:54.355Z,13.07
2022-12-31T02:06:23.375Z,9.15
2022-12-31T02:09:47.334Z,10.57
2022-12-31T02:13:11.590Z,10.02
2022-12-31T02:16:45.772Z,10.63
2022-12-31T02:20:44.500Z,10.93
2022-12-31T02:24:39.721Z,11.57
2022-12-31T02:28:17.713Z,9.07
2022-12-31T02:31:51.961Z,10.52
2022-12-31T02:35:20.875Z,11.27
2022-12-31T02:38:48.677Z,10.02
2022-12-31T02:42:13.315Z,10.43
2022-12-31T02:45:40.384Z,8.82
2022-12-31T02:49:12.471Z,10.48
2022-12-31T02:52:47.371Z,7.45
2022-12-31T02:56:20.357Z,10.75
2022-12-31T03:00:10.156Z,8.40
2022-12-31T03:03:35.257Z,9.77
2022-12-31T03:07:02.214Z,9.52
2022-12-31T03:10:26.206Z,11.55
2022-12-31T03:13:49.256Z,10.45
2022-12-31T03:17:13.648Z,12.50
2022-12-31T03:20:57.727Z,11.48
2022-12-31T03:24:42.125Z,10.55
2022-12-31T03:28:12.864Z,10.48
2022-12-31T03:31:39.184Z,11.45
2022-12-31T03:35:05.882Z,9.50
2022-12-31T03:41:55.289Z,10.55
2022-12-31T03:45:19.336Z,10.63
2022-12-31T03:48:43.491Z,11.60
2022-12-31T03:52:08.947Z,12.10
2022-12-31T03:55:33.052Z,11.15
2022-12-31T03:58:58.648Z,10.77
2022-12-31T04:02:28.325Z,12.77
2022-12-31T04:05:56.689Z,12.57
2022-12-31T04:09:21.437Z,11.07
2022-12-31T04:12:45.784Z,9.88
2022-12-31T04:16:12.572Z,13.18
2022-12-31T04:19:36.301Z,12.40
2022-12-31T04:23:00.526Z,12.02
2022-12-31T04:26:24.791Z,10.52
2022-12-31T04:29:48.950Z,12.23
2022-12-31T04:33:14.492Z,12.20
2022-12-31T04:36:39.095Z,12.63
2022-12-31T04:40:06.279Z,11.73
2022-12-31T04:43:31.194Z,13.73
2022-12-31T04:46:54.947Z,12.85
2022-12-31T04:50:20.926Z,11.90
2022-12-31T04:53:44.730Z,12.45
2022-12-31T04:57:09.016Z,13.50
2022-12-31T05:00:32.478Z,12.43
2022-12-31T05:03:56.492Z,14.40
2022-12-31T05:10:49.970Z,12.63
2022-12-31T05:14:13.879Z,11.98
2022-12-31T05:17:37.822Z,11.77
2022-12-31T05:21:02.170Z,11.73
2022-12-31T05:24:30.087Z,14.35
2022-12-31T05:27:54.337Z,10.75
2022-12-31T05:31:18.450Z,14.18
2022-12-31T05:34:42.134Z,11.05
2022-12-31T05:38:06.345Z,11.82
2022-12-31T05:41:31.544Z,13.25
2022-12-31T05:44:55.612Z,13.18
2022-12-31T05:48:19.718Z,10.73
2022-12-31T05:51:43.691Z,11.73
2022-12-31T05:55:08.212Z,12.02
2022-12-31T05:58:33.920Z,11.60
2022-12-31T06:01:58.455Z,11.77
2022-12-31T06:05:26.080Z,9.27
2022-12-31T06:08:51.311Z,10.90
2022-12-31T06:12:15.806Z,9.93
2022-12-31T06:15:41.916Z,11.48
2022-12-31T06:19:06.693Z,11.57
2022-12-31T06:22:30.453Z,10.60
2022-12-31T06:25:54.697Z,11.73
2022-12-31T06:29:18.873Z,11.57
2022-12-31T06:32:44.470Z,9.40
2022-12-31T06:36:11.039Z,12.07
2022-12-31T06:39:35.004Z,9.23
2022-12-31T06:43:00.309Z,10.32
2022-12-31T06:46:29.400Z,11.00
2022-12-31T06:49:54.726Z,9.32
2022-12-31T06:53:19.271Z,10.00
2022-12-31T06:56:43.613Z,9.25
2022-12-31T07:00:10.030Z,10.73
2022-12-31T07:03:41.429Z,8.75
2022-12-31T07:07:16.885Z,8.63
2022-12-31T07:10:50.359Z,8.88
2022-12-31T07:14:27.104Z,9.43
2022-12-31T07:18:02.960Z,9.05
2022-12-31T07:21:36.559Z,8.32
2022-12-31T07:25:02.825Z,9.82
2022-12-31T07:28:39.541Z,8.00
2022-12-31T07:32:12.349Z,9.90
2022-12-31T07:35:46.539Z,7.60
2022-12-31T07:39:14.986Z,8.98
2022-12-31T07:42:51.313Z,9.00
2022-12-31T07:46:20.856Z,9.02
2022-12-31T07:49:46.164Z,7.55
2022-12-31T07:53:11.073Z,5.00
2022-12-31T07:56:35.127Z,8.25
2022-12-31T08:00:07.431Z,8.07
2022-12-31T08:03:49.324Z,8.00
2022-12-31T08:07:22.808Z,7.82
2022-12-31T08:10:56.356Z,6.50
2022-12-31T08:14:21.216Z,6.80
2022-12-31T08:17:47.534Z,7.40
2022-12-31T08:21:21.967Z,8.10
2022-12-31T08:24:57.445Z,7.88
2022-12-31T08:28:31.281Z,7.13
2022-12-31T08:32:08.214Z,7.68
2022-12-31T08:35:49.065Z,7.43
2022-12-31T08:39:25.805Z,6.93
2022-12-31T08:43:07.063Z,7.15
2022-12-31T08:46:36.073Z,7.72
2022-12-31T08:50:00.628Z,6.88
2022-12-31T08:53:27.159Z,6.05
2022-12-31T08:56:57.683Z,5.00
2022-12-31T09:00:23.155Z,6.22
2022-12-31T09:03:59.718Z,6.25
2022-12-31T09:07:33.185Z,6.18
2022-12-31T09:11:04.550Z,6.85
2022-12-31T09:14:47.240Z,6.32
2022-12-31T09:18:13.388Z,5.85
2022-12-31T09:21:41.704Z,4.80
2022-12-31T09:25:06.057Z,6.50
2022-12-31T09:28:43.502Z,6.03
2022-12-31T09:32:17.161Z,5.65
2022-12-31T09:35:47.794Z,5.90
2022-12-31T09:39:17.609Z,5.22
2022-12-31T09:43:01.520Z,5.68
2022-12-31T09:47:02.664Z,4.82
2022-12-31T09:51:04.872Z,4.90
2022-12-31T09:54:45.324Z,4.72
2022-12-31T09:58:20.634Z,4.35
2022-12-31T10:01:55.300Z,4.80
2022-12-31T10:05:36.909Z,5.38
2022-12-31T10:09:36.164Z,5.38
2022-12-31T10:13:18.341Z,3.65
2022-12-31T10:17:01.815Z,4.15
2022-12-31T10:20:55.009Z,5.50
2022-12-31T10:24:41.547Z,5.55
2022-12-31T10:28:15.923Z,5.72
2022-12-31T10:31:41.944Z,4.63
2022-12-31T10:35:21.185Z,5.28
2022-12-31T10:38:57.731Z,5.78
2022-12-31T10:42:50.675Z,5.63
2022-12-31T10:46:48.075Z,6.80
2022-12-31T10:50:39.005Z,7.10
2022-12-31T10:54:30.869Z,6.03
2022-12-31T10:58:40.895Z,6.35
2022-12-31T11:02:25.729Z,5.80
2022-12-31T11:06:23.307Z,5.38
2022-12-31T11:10:13.680Z,4.93
2022-12-31T11:14:09.231Z,3.42
2022-12-31T11:17:42.536Z,3.92
2022-12-31T11:21:26.215Z,4.57
2022-12-31T11:25:07.548Z,3.63
2022-12-31T11:28:56.219Z,4.82
2022-12-31T11:32:32.025Z,5.10
2022-12-31T11:36:15.672Z,3.67
2022-12-31T11:39:50.731Z,5.10
2022-12-31T11:43:27.388Z,4.60
2022-12-31T11:47:05.306Z,5.13
2022-12-31T11:50:41.039Z,3.90
2022-12-31T11:54:33.747Z,4.50
2022-12-31T11:58:03.745Z,5.82
2022-12-31T12:01:34.014Z,5.28
2022-12-31T12:05:06.546Z,4.88
2022-12-31T12:08:35.565Z,4.90
2022-12-31T12:12:00.869Z,4.35
2022-12-31T12:15:28.037Z,4.85
2022-12-31T12:19:05.715Z,5.00
2022-12-31T12:22:31.841Z,5.85
2022-12-31T12:25:56.259Z,5.30
2022-12-31T12:29:21.954Z,6.70
2022-12-31T12:32:54.319Z,4.55
2022-12-31T12:36:22.046Z,5.30
2022-12-31T12:39:56.824Z,4.45
2022-12-31T12:43:24.918Z,4.57
2022-12-31T12:46:50.552Z,4.72
2022-12-31T12:50:18.681Z,5.07
2022-12-31T12:53:52.872Z,4.20
2022-12-31T12:57:22.550Z,5.50
2022-12-31T13:00:54.843Z,5.10
2022-12-31T13:04:34.645Z,3.85
2022-12-31T13:08:12.792Z,5.18
2022-12-31T13:11:47.804Z,5.07
2022-12-31T13:15:18.595Z,4.05
2022-12-31T13:18:53.048Z,6.10
2022-12-31T13:22:24.756Z,5.10
2022-12-31T13:26:01.989Z,4.70
2022-12-31T13:29:31.770Z,7.18
2022-12-31T13:33:02.878Z,5.75
2022-12-31T13:36:30.077Z,3.78
2022-12-31T13:40:01.267Z,5.18
2022-12-31T13:43:38.277Z,3.78
2022-12-31T13:47:13.020Z,4.88
2022-12-31T13:50:44.147Z,5.95
2022-12-31T13:54:20.084Z,5.07
2022-12-31T13:57:46.825Z,5.18
2022-12-31T14:01:20.022Z,4.60
2022-12-31T14:04:50.796Z,5.60
2022-12-31T14:08:14.694Z,5.38
2022-12-31T14:12:01.342Z,5.30
2022-12-31T14:15:31.298Z,4.57
2022-12-31T14:19:06.456Z,4.82
2022-12-31T14:22:40.936Z,5.78
2022-12-31T14:26:09.259Z,4.15
2022-12-31T14:29:40.449Z,3.67
2022-12-31T14:33:20.544Z,4.90
2022-12-31T14:36:54.426Z,5.22
2022-12-31T14:40:28.331Z,5.10
2022-12-31T14:44:05.112Z,4.30
2022-12-31T14:47:42.514Z,4.72
2022-12-31T14:51:07.127Z,5.18
2022-12-31T14:54:38.015Z,4.10
2022-12-31T15:01:49.700Z,5.18
2022-12-31T15:05:18.315Z,4.13
2022-12-31T15:08:52.569Z,5.22
2022-12-31T15:12:33.903Z,5.10
2022-12-31T15:16:28.159Z,4.63
2022-12-31T15:20:23.460Z,5.00
2022-12-31T15:23:47.855Z,4.40
2022-12-31T15:27:35.828Z,4.90
2022-12-31T15:31:06.511Z,4.38
2022-12-31T15:34:35.943Z,4.72
2022-12-31T15:38:02.011Z,4.57
2022-12-31T15:41:29.282Z,5.05
2022-12-31T15:45:03.050Z,4.10
2022-12-31T15:48:33.600Z,4.60
2022-12-31T15:52:05.092Z,5.03
2022-12-31T15:55:33.329Z,4.22
2022-12-31T15:59:00.797Z,4.55
2022-12-31T16:02:27.083Z,4.55
2022-12-31T16:05:51.700Z,4.72
2022-12-31T16:09:26.984Z,4.82
2022-12-31T16:12:51.390Z,5.20
2022-12-31T16:16:25.086Z,5.10
2022-12-31T16:19:49.167Z,5.00
2022-12-31T16:23:22.373Z,5.60
2022-12-31T16:26:58.763Z,4.13
2022-12-31T16:30:24.808Z,4.85
2022-12-31T16:33:49.356Z,5.05
2022-12-31T16:37:17.885Z,5.50
2022-12-31T16:40:42.916Z,5.25
2022-12-31T16:44:26.706Z,4.70
2022-12-31T16:47:51.053Z,4.32
2022-12-31T16:51:20.112Z,5.07
2022-12-31T16:54:49.438Z,4.40
2022-12-31T16:58:20.414Z,4.97
2022-12-31T17:01:49.760Z,4.95
2022-12-31T17:05:22.487Z,4.07
2022-12-31T17:08:51.085Z,4.90
2022-12-31T17:12:17.798Z,4.88
2022-12-31T17:15:44.455Z,4.70
2022-12-31T17:19:19.751Z,4.35
2022-12-31T17:22:45.602Z,4.40
2022-12-31T17:26:12.267Z,3.25
2022-12-31T17:29:36.891Z,4.18
2022-12-31T17:33:01.956Z,3.78
2022-12-31T17:36:29.092Z,4.72
2022-12-31T17:40:10.919Z,4.93
2022-12-31T17:43:43.753Z,4.30
2022-12-31T17:47:14.202Z,5.03
2022-12-31T17:50:48.295Z,4.63
2022-12-31T17:54:16.258Z,4.00
2022-12-31T17:57:50.648Z,3.72
2022-12-31T18:01:17.963Z,5.00
2022-12-31T18:04:42.108Z,3.70
2022-12-31T18:08:06.758Z,4.22
2022-12-31T18:11:32.297Z,4.47
2022-12-31T18:14:58.080Z,3.83
2022-12-31T18:18:25.864Z,4.28
2022-12-31T18:21:49.774Z,4.68
2022-12-31T18:25:17.824Z,4.13
2022-12-31T18:28:43.160Z,3.15
2022-12-31T18:32:07.517Z,5.07
2022-12-31T18:36:07.144Z,4.45
2022-12-31T18:39:15.549Z,4.60
2022-12-31T18:42:40.126Z,3.90
2022-12-31T18:46:06.132Z,4.13
2022-12-31T18:49:30.213Z,4.88
2022-12-31T18:52:54.389Z,4.82
2022-12-31T18:56:21.797Z,4.35
2022-12-31T18:59:46.154Z,4.32
2022-12-31T19:03:16.227Z,5.00
2022-12-31T19:06:40.295Z,3.88
2022-12-31T19:10:03.920Z,4.35
2022-12-31T19:13:28.002Z,4.25
2022-12-31T19:16:53.458Z,4.82
2022-12-31T19:20:19.151Z,4.80
2022-12-31T19:23:42.974Z,4.82
2022-12-31T19:27:07.243Z,4.65
2022-12-31T19:30:33.135Z,4.68
2022-12-31T19:33:57.201Z,4.95
2022-12-31T19:37:22.202Z,4.43
2022-12-31T19:40:46.955Z,5.78
2022-12-31T19:44:15.282Z,4.75
2022-12-31T19:47:39.663Z,4.70
2022-12-31T19:51:05.227Z,5.18
2022-12-31T19:54:31.081Z,4.38
2022-12-31T19:57:56.189Z,3.85
2022-12-31T20:01:23.980Z,5.15
2022-12-31T20:04:47.708Z,3.30
2022-12-31T20:08:12.372Z,3.95
2022-12-31T20:11:37.636Z,3.78
2022-12-31T20:15:03.657Z,4.32
2022-12-31T20:18:27.490Z,5.22
2022-12-31T20:21:51.545Z,4.85
2022-12-31T20:25:15.455Z,5.25
2022-12-31T20:28:41.147Z,4.82
2022-12-31T20:32:05.432Z,5.30
2022-12-31T20:35:31.206Z,5.20
2022-12-31T20:38:55.384Z,5.45
2022-12-31T20:42:19.288Z,4.70
2022-12-31T20:45:45.660Z,4.88
2022-12-31T20:49:12.454Z,5.28
2022-12-31T20:52:36.320Z,4.55
2022-12-31T20:56:05.452Z,5.00
2022-12-31T20:59:29.094Z,4.57
2022-12-31T21:03:04.086Z,4.35
2022-12-31T21:06:33.212Z,5.22
2022-12-31T21:09:57.278Z,4.93
2022-12-31T21:13:23.107Z,5.25
2022-12-31T21:16:46.854Z,4.25
2022-12-31T21:20:13.314Z,4.80
2022-12-31T21:23:37.374Z,4.97
2022-12-31T21:27:00.964Z,4.50
2022-12-31T21:30:25.202Z,5.35
2022-12-31T21:33:49.497Z,4.93
2022-12-31T21:37:15.433Z,4.90
2022-12-31T21:40:39.594Z,5.68
2022-12-31T21:44:04.201Z,4.78
2022-12-31T21:47:47.801Z,4.88
2022-12-31T21:51:14.466Z,5.20
2022-12-31T21:54:56.871Z,4.22
2022-12-31T21:58:28.647Z,4.88
2022-12-31T22:02:10.048Z,5.00
2022-12-31T22:05:36.442Z,5.78
2022-12-31T22:09:00.661Z,4.60
2022-12-31T22:12:26.566Z,4.95
2022-12-31T22:15:58.855Z,4.28
2022-12-31T22:19:26.258Z,4.72
2022-12-31T22:22:53.120Z,4.80
2022-12-31T22:26:18.884Z,3.78
2022-12-31T22:29:44.204Z,3.92
2022-12-31T22:36:31.904Z,4.55
2022-12-31T22:39:56.028Z,3.50
2022-12-31T22:43:19.925Z,3.67
2022-12-31T22:46:46.262Z,4.15
2022-12-31T22:50:10.346Z,4.28
2022-12-31T22:53:35.257Z,4.60
2022-12-31T22:57:01.524Z,4.22
2022-12-31T23:00:40.735Z,4.63
2022-12-31T23:04:06.511Z,4.43
2022-12-31T23:07:30.367Z,5.25
2022-12-31T23:11:01.787Z,5.60
2022-12-31T23:14:42.962Z,7.55
2022-12-31T23:18:24.188Z,5.88
2022-12-31T23:22:06.994Z,5.82
2022-12-31T23:25:33.378Z,5.07
2022-12-31T23:28:57.407Z,5.80
2022-12-31T23:32:24.263Z,5.47
2022-12-31T23:35:48.338Z,4.85
2022-12-31T23:39:13.773Z,4.88
2022-12-31T23:42:37.834Z,4.18
2022-12-31T23:46:01.293Z,5.07
2022-12-31T23:49:25.927Z,5.18
2022-12-31T23:52:49.547Z,4.40
2022-12-31T23:56:23.369Z,5.55
2022-12-31T23:59:47.837Z,5.38
